»·PEaware :: N515ZT KBFL-KSBA

N515ZT :: KBFL-KSBA

FLIGHT INFORMATION

Flight Status: Arrived
Operator: Privately registered:
United States
More flights under this callsign
Pilot: Marty P. (27464)
Aircraft: BEECH AIRCRAFT BARON
(BE58)
More flights by this aircraft type
Origin: KBFL Meadows
United States
Destination: KSBA Santa Barbara Mun
United States
More flights between these airports :: More routes between these airports
Route: RIZIN IYOBE
File this flight plan on PilotEdge
Remarks:
Altitude:
(Current/Filed)
12,500ft
Speed:
(Current/Filed)
200kts
Departed: 20-Feb-20 07:42 PM
Arrived: 20-Feb-20 08:16 PM
Distance/Time
Traveled:
71nm/0:34
Distance/Time
To Go:
Arrived

Flight Plot

Page will automatically refresh every two minutes.

Flight plan parsing failed; only flown route is shown


Map Options




Map Legend


Flown Route
Filed Route
Departure Airport
Arrival Airport
Navaid (VOR, NDB)
Fix

Horizontal Profiles

Position Reports

Time Latitude Longitude Heading Altitude Ground
Speed
20-Feb-20 19:24 35.435714 -119.052043 180 507ft 0kts
20-Feb-20 19:25 35.435714 -119.052043 180 507ft 0kts
20-Feb-20 19:26 35.435714 -119.052043 180 507ft 0kts
20-Feb-20 19:27 35.435714 -119.052043 180 507ft 0kts
20-Feb-20 19:28 35.435714 -119.052043 180 507ft 0kts
20-Feb-20 19:29 35.435714 -119.052043 180 507ft 0kts
20-Feb-20 19:30 35.435714 -119.052043 180 507ft 0kts
20-Feb-20 19:31 35.435714 -119.052043 180 507ft 0kts
20-Feb-20 19:31 35.435714 -119.052043 180 507ft 0kts
20-Feb-20 19:33 35.435714 -119.052043 180 507ft 0kts
20-Feb-20 19:34 35.435586 -119.052075 211 507ft 0kts
20-Feb-20 19:34 35.435479 -119.052675 269 507ft 7kts
20-Feb-20 19:35 35.435005 -119.053995 226 507ft 0kts
20-Feb-20 19:37 35.434880 -119.054162 227 507ft 5kts
20-Feb-20 19:37 35.432555 -119.052416 135 507ft 20kts
20-Feb-20 19:38 35.429943 -119.049256 135 507ft 9kts
20-Feb-20 19:39 35.427151 -119.045881 135 507ft 17kts
20-Feb-20 19:40 35.425741 -119.044744 224 507ft 0kts
20-Feb-20 19:41 35.426819 -119.047674 315 507ft 61kts
20-Feb-20 19:42 35.448164 -119.078593 291 1452ft 140kts
20-Feb-20 19:43 35.425453 -119.117844 180 2273ft 157kts
20-Feb-20 19:44 35.391236 -119.092338 138 3511ft 143kts
20-Feb-20 19:45 35.354491 -119.094199 201 4631ft 145kts
20-Feb-20 19:46 35.317717 -119.112197 198 5680ft 140kts
20-Feb-20 19:47 35.281661 -119.129121 197 6647ft 137kts
20-Feb-20 19:48 35.246066 -119.145807 196 8069ft 132kts
20-Feb-20 19:49 35.212848 -119.161304 197 9450ft 124kts
20-Feb-20 19:50 35.181075 -119.176143 199 10631ft 124kts
20-Feb-20 19:51 35.147418 -119.191905 201 11485ft 136kts
20-Feb-20 19:52 35.113591 -119.207666 202 12538ft 124kts
20-Feb-20 19:53 35.074666 -119.225886 201 12477ft 165kts
20-Feb-20 19:54 35.030220 -119.246599 201 12473ft 174kts
20-Feb-20 19:55 34.984696 -119.267767 201 12470ft 176kts
20-Feb-20 19:56 34.938965 -119.289000 201 12489ft 176kts
20-Feb-20 19:57 34.893220 -119.310270 201 12492ft 176kts
20-Feb-20 19:58 34.847833 -119.331280 201 12496ft 177kts
20-Feb-20 19:59 34.801846 -119.352570 201 12501ft 176kts
20-Feb-20 20:00 34.755935 -119.373808 201 12506ft 176kts
20-Feb-20 20:01 34.710026 -119.395022 201 12506ft 176kts
20-Feb-20 20:02 34.664173 -119.416180 201 12458ft 178kts
20-Feb-20 20:03 34.614638 -119.439047 200 11340ft 198kts
20-Feb-20 20:04 34.562208 -119.463176 199 10231ft 204kts
20-Feb-20 20:05 34.508645 -119.487779 198 9157ft 209kts
20-Feb-20 20:06 34.472572 -119.540375 260 8089ft 224kts
20-Feb-20 20:07 34.470580 -119.614237 267 7068ft 212kts
20-Feb-20 20:08 34.468443 -119.684442 259 5969ft 204kts
20-Feb-20 20:09 34.439383 -119.736250 232 3663ft 156kts
20-Feb-20 20:10 34.420081 -119.775306 197 1704ft 122kts
20-Feb-20 20:11 34.404095 -119.750491 56 1487ft 126kts
20-Feb-20 20:12 34.433844 -119.753564 288 1447ft 106kts
20-Feb-20 20:13 34.428945 -119.790824 267 1262ft 101kts
20-Feb-20 20:14 34.428125 -119.825216 269 273ft 98kts
20-Feb-20 20:15 34.428917 -119.842077 344 14ft 14kts
20-Feb-20 20:16 34.431246 -119.837994 70 14ft 10kts
20-Feb-20 20:17 34.432820 -119.834798 342 14ft 13kts
20-Feb-20 20:18 34.432873 -119.835997 246 14ft 0kts

Navigation Log

Ident Type
Flight plan parsing failed, navigation log unavailable